Time;durP1;ratioP1;P1;durP2;ratioP2;P2;SDS_P1;SDS_P2;PMS_P1;PMS_P2;Temp;Humidity;BMP_temperature;BMP_pressure;BME280_temperature;BME280_humidity;BME280_pressure;Samples;Min_cycle;Max_cycle;Signal;HPM_P1;HPM_P2
2022/03/26 00:02:19;;;;;;;16.17;13.95;;;8.50;54.80;;;;;;5088225;28;20024;-63
2022/03/26 00:04:44;;;;;;;16.52;13.68;;;8.50;55.00;;;;;;5087107;28;20028;-63
2022/03/26 00:07:10;;;;;;;15.82;12.85;;;8.50;55.10;;;;;;5081357;27;20035;-63
2022/03/26 00:09:36;;;;;;;17.08;13.93;;;8.40;55.10;;;;;;5105601;28;20032;-63
2022/03/26 00:12:02;;;;;;;18.55;13.65;;;8.40;55.20;;;;;;5083246;28;20126;-63
2022/03/26 00:14:28;;;;;;;19.58;15.43;;;8.40;55.20;;;;;;5097038;28;20024;-63
2022/03/26 00:16:54;;;;;;;19.95;15.25;;;8.40;55.40;;;;;;5114224;28;20020;-63
2022/03/26 00:19:20;;;;;;;17.52;15.57;;;8.40;55.50;;;;;;5100474;28;20063;-63
2022/03/26 00:21:47;;;;;;;17.08;13.85;;;8.40;55.70;;;;;;5102480;28;20518;-63
2022/03/26 00:24:14;;;;;;;17.60;14.23;;;8.30;55.80;;;;;;5101365;28;20144;-63
2022/03/26 00:26:40;;;;;;;16.40;14.45;;;8.30;55.90;;;;;;5106720;28;20031;-63
2022/03/26 00:29:08;;;;;;;17.38;13.35;;;8.30;55.90;;;;;;5104248;28;20372;-63
2022/03/26 00:31:34;;;;;;;16.77;14.55;;;8.20;56.10;;;;;;5080511;28;20025;-63
2022/03/26 00:34:00;;;;;;;17.98;15.18;;;8.20;56.20;;;;;;5075534;28;20107;-63
2022/03/26 00:36:26;;;;;;;16.15;13.98;;;8.20;56.50;;;;;;5098911;28;20035;-63
2022/03/26 00:38:52;;;;;;;16.38;14.23;;;8.20;56.50;;;;;;5093989;27;20690;-63
2022/03/26 00:41:18;;;;;;;17.25;14.50;;;8.10;56.60;;;;;;5076001;28;20028;-63
2022/03/26 00:43:44;;;;;;;18.45;14.90;;;8.20;56.90;;;;;;5095702;28;20395;-63
2022/03/26 00:46:11;;;;;;;18.23;15.65;;;8.10;57.00;;;;;;5105906;28;20027;-63
2022/03/26 00:48:37;;;;;;;18.25;15.25;;;8.10;57.20;;;;;;5090436;28;20028;-63
2022/03/26 00:51:02;;;;;;;17.55;15.40;;;8.10;57.30;;;;;;5086920;28;20047;-63
2022/03/26 00:53:28;;;;;;;17.45;14.88;;;8.10;57.40;;;;;;5094738;28;20024;-63
2022/03/26 00:55:54;;;;;;;16.15;13.77;;;8.10;57.60;;;;;;5109114;28;20066;-63
2022/03/26 00:58:19;;;;;;;16.92;15.15;;;8.10;57.80;;;;;;5096756;28;20031;-63
2022/03/26 01:00:46;;;;;;;17.98;14.23;;;8.10;57.80;;;;;;5097328;28;20032;-63
2022/03/26 01:03:12;;;;;;;16.60;13.07;;;8.10;58.00;;;;;;5085320;28;20104;-63
2022/03/26 01:05:38;;;;;;;15.27;13.68;;;8.00;58.00;;;;;;5092734;28;20065;-63
2022/03/26 01:08:04;;;;;;;16.45;14.63;;;8.00;58.10;;;;;;5101680;28;20106;-63
2022/03/26 01:10:30;;;;;;;17.73;15.43;;;8.00;58.10;;;;;;5097086;28;20050;-63
2022/03/26 01:12:56;;;;;;;16.65;14.95;;;8.00;58.20;;;;;;5094889;28;20036;-63
2022/03/26 01:15:22;;;;;;;16.15;13.95;;;8.00;58.20;;;;;;5108540;28;20051;-63
2022/03/26 01:17:49;;;;;;;16.98;14.63;;;8.00;58.30;;;;;;5093366;28;20502;-63
2022/03/26 01:20:16;;;;;;;17.90;14.23;;;8.00;58.40;;;;;;5098368;28;20035;-63
2022/03/26 01:22:42;;;;;;;16.77;14.48;;;8.00;58.40;;;;;;5097558;28;20039;-63
2022/03/26 01:25:08;;;;;;;16.55;14.43;;;8.00;58.50;;;;;;5112951;28;20364;-63
2022/03/26 01:27:33;;;;;;;18.00;15.25;;;7.90;58.50;;;;;;5103249;28;20019;-63
2022/03/26 01:29:59;;;;;;;17.92;14.75;;;7.90;58.70;;;;;;5086255;28;20369;-63
2022/03/26 01:32:25;;;;;;;17.75;14.65;;;7.90;58.70;;;;;;5084368;28;20462;-63
2022/03/26 01:34:50;;;;;;;15.23;13.00;;;7.90;58.90;;;;;;5112828;28;20118;-63
2022/03/26 01:37:16;;;;;;;19.08;14.18;;;7.90;59.00;;;;;;5104302;28;20040;-62
2022/03/26 01:39:43;;;;;;;16.88;14.60;;;7.90;59.10;;;;;;5086526;28;20059;-63
2022/03/26 01:42:09;;;;;;;15.57;13.98;;;7.90;59.20;;;;;;5089726;28;20027;-63
2022/03/26 01:44:37;;;;;;;16.88;14.70;;;7.90;59.20;;;;;;5116897;28;20501;-63
2022/03/26 01:47:04;;;;;;;18.20;14.45;;;7.90;59.40;;;;;;5113559;28;20387;-63
2022/03/26 01:49:33;;;;;;;16.52;13.90;;;7.90;59.30;;;;;;5087954;28;20477;-63
2022/03/26 01:52:00;;;;;;;17.23;14.30;;;7.90;59.40;;;;;;5083873;28;20036;-63
2022/03/26 01:54:28;;;;;;;17.83;14.15;;;7.90;59.50;;;;;;5110352;28;20030;-63
2022/03/26 01:56:54;;;;;;;17.50;14.38;;;7.80;59.60;;;;;;5116180;28;20023;-63
2022/03/26 01:59:20;;;;;;;15.32;13.73;;;7.80;59.60;;;;;;5096779;28;20016;-63
2022/03/26 02:01:46;;;;;;;16.80;13.65;;;7.70;59.60;;;;;;5111139;28;20027;-63
2022/03/26 02:04:12;;;;;;;15.07;13.50;;;7.70;59.80;;;;;;5084506;28;20053;-63
2022/03/26 02:06:40;;;;;;;16.98;13.25;;;7.70;59.80;;;;;;5095710;28;20116;-63
2022/03/26 02:09:08;;;;;;;15.73;13.63;;;7.70;59.90;;;;;;5100046;28;20103;-63
2022/03/26 02:11:37;;;;;;;16.48;13.35;;;7.70;59.90;;;;;;5092605;28;20031;-63
2022/03/26 02:14:03;;;;;;;15.23;13.63;;;7.70;60.00;;;;;;5102236;28;20476;-63
2022/03/26 02:16:31;;;;;;;18.50;14.27;;;7.70;60.00;;;;;;5110192;27;20042;-63
2022/03/26 02:18:57;;;;;;;16.15;14.38;;;7.70;59.90;;;;;;5112797;28;20073;-63
2022/03/26 02:21:24;;;;;;;15.98;13.93;;;7.70;59.90;;;;;;5100414;28;20102;-63
2022/03/26 02:23:51;;;;;;;16.45;14.32;;;7.60;60.10;;;;;;5092247;28;20029;-63
2022/03/26 02:26:20;;;;;;;15.90;14.23;;;7.60;60.20;;;;;;5116128;28;20105;-63
2022/03/26 02:28:46;;;;;;;16.58;14.48;;;7.50;60.30;;;;;;5112612;28;20073;-63
2022/03/26 02:31:16;;;;;;;19.85;15.32;;;7.50;60.50;;;;;;5088368;28;20435;-63
2022/03/26 02:33:42;;;;;;;23.58;14.52;;;7.40;60.70;;;;;;5108928;27;20055;-63
2022/03/26 02:36:09;;;;;;;17.02;14.75;;;7.40;60.80;;;;;;5102556;28;20036;-63
2022/03/26 02:38:36;;;;;;;18.02;15.35;;;7.30;60.90;;;;;;5089884;28;20029;-63
2022/03/26 02:41:03;;;;;;;16.50;14.75;;;7.30;61.10;;;;;;5086690;28;20028;-63
2022/03/26 02:43:29;;;;;;;16.98;14.68;;;7.30;61.10;;;;;;5102096;28;20023;-63
2022/03/26 02:45:56;;;;;;;18.77;15.02;;;7.20;61.00;;;;;;5103598;28;20028;-63
2022/03/26 02:48:21;;;;;;;16.75;14.68;;;7.20;61.20;;;;;;5103701;28;20114;-63
2022/03/26 02:50:47;;;;;;;18.30;15.20;;;7.20;61.30;;;;;;5098516;28;20424;-63
2022/03/26 02:53:14;;;;;;;17.50;14.77;;;7.10;61.40;;;;;;5086991;28;20448;-63
2022/03/26 02:55:40;;;;;;;17.80;15.07;;;7.10;61.60;;;;;;5099021;28;20024;-63
2022/03/26 02:58:07;;;;;;;16.75;14.90;;;7.10;61.60;;;;;;5088805;28;20023;-63
2022/03/26 03:00:38;;;;;;;16.95;14.45;;;7.00;61.80;;;;;;5112907;27;20020;-63
2022/03/26 03:03:04;;;;;;;17.80;14.68;;;7.00;61.90;;;;;;5112490;28;20179;-63
2022/03/26 03:05:30;;;;;;;17.60;15.65;;;7.00;61.90;;;;;;5103094;28;20483;-63
2022/03/26 03:07:57;;;;;;;17.33;14.10;;;7.00;62.10;;;;;;5086011;28;20030;-63
2022/03/26 03:10:22;;;;;;;17.98;14.80;;;6.90;62.00;;;;;;5086445;28;20032;-63
2022/03/26 03:12:49;;;;;;;18.55;14.63;;;6.90;62.10;;;;;;5085905;28;20016;-63
2022/03/26 03:15:17;;;;;;;17.98;15.27;;;6.90;62.20;;;;;;5089361;28;20362;-63
2022/03/26 03:17:44;;;;;;;17.60;15.10;;;6.90;62.30;;;;;;5093509;28;20024;-63
2022/03/26 03:20:11;;;;;;;19.50;15.40;;;6.90;62.40;;;;;;5114821;28;20031;-63
2022/03/26 03:22:38;;;;;;;19.73;16.48;;;6.90;62.50;;;;;;5090533;28;20039;-63
2022/03/26 03:25:05;;;;;;;22.70;16.95;;;6.80;62.20;;;;;;5077413;28;20543;-63
2022/03/26 03:27:31;;;;;;;19.92;17.73;;;6.80;62.40;;;;;;5085904;28;20131;-63
2022/03/26 03:29:57;;;;;;;20.27;17.23;;;6.80;62.70;;;;;;5103679;28;20058;-63
2022/03/26 03:32:22;;;;;;;21.40;17.55;;;6.80;62.60;;;;;;5093293;28;20103;-63
2022/03/26 03:34:48;;;;;;;22.45;18.40;;;6.70;62.60;;;;;;5096411;28;20063;-63
2022/03/26 03:37:14;;;;;;;21.77;17.52;;;6.70;62.60;;;;;;5089460;28;20036;-63
2022/03/26 03:39:39;;;;;;;23.42;18.58;;;6.70;62.70;;;;;;5105558;28;20095;-63
2022/03/26 03:42:05;;;;;;;20.60;17.88;;;6.70;62.70;;;;;;5108802;28;20028;-63
2022/03/26 03:44:31;;;;;;;21.48;17.40;;;6.70;62.80;;;;;;5091237;28;20072;-63
2022/03/26 03:46:57;;;;;;;23.38;18.25;;;6.70;62.80;;;;;;5090825;28;20035;-63
2022/03/26 03:49:23;;;;;;;23.45;17.25;;;6.70;63.00;;;;;;5114269;28;20035;-63
2022/03/26 03:51:49;;;;;;;20.65;17.30;;;6.70;62.90;;;;;;5114532;27;20038;-63
2022/03/26 03:54:15;;;;;;;22.75;18.60;;;6.60;62.90;;;;;;5093094;28;20031;-63
2022/03/26 03:56:41;;;;;;;21.67;17.23;;;6.70;63.00;;;;;;5092891;28;20251;-63
2022/03/26 03:59:08;;;;;;;22.45;17.52;;;6.60;62.90;;;;;;5104915;28;20032;-63
2022/03/26 04:01:33;;;;;;;20.88;17.23;;;6.60;63.60;;;;;;5099794;28;20068;-63
2022/03/26 04:03:59;;;;;;;20.70;18.50;;;6.60;63.00;;;;;;5084344;28;20032;-63
2022/03/26 04:06:25;;;;;;;22.83;17.55;;;6.60;63.10;;;;;;5086418;28;20536;-63
2022/03/26 04:08:51;;;;;;;22.92;18.27;;;6.70;63.00;;;;;;5098640;28;20081;-63
2022/03/26 04:11:17;;;;;;;21.00;17.63;;;6.70;63.70;;;;;;5097090;28;20029;-63
2022/03/26 04:13:43;;;;;;;22.85;17.30;;;6.70;63.00;;;;;;5100843;28;20107;-63
2022/03/26 04:16:09;;;;;;;22.45;17.40;;;6.70;63.00;;;;;;5086679;28;20111;-63
2022/03/26 04:18:34;;;;;;;21.40;17.45;;;6.80;62.90;;;;;;5099673;28;20480;-63
2022/03/26 04:21:00;;;;;;;22.70;17.23;;;6.80;62.90;;;;;;5086199;28;20119;-63
2022/03/26 04:23:26;;;;;;;21.02;17.73;;;6.80;62.80;;;;;;5092682;28;20020;-63
2022/03/26 04:25:52;;;;;;;21.15;17.45;;;6.80;62.70;;;;;;5083001;28;20056;-64
2022/03/26 04:28:18;;;;;;;25.48;18.33;;;6.80;62.60;;;;;;5110735;28;20049;-61
2022/03/26 04:30:43;;;;;;;23.48;18.33;;;6.80;62.80;;;;;;5100264;28;20028;-61
2022/03/26 04:33:09;;;;;;;24.05;19.00;;;6.90;62.60;;;;;;5104906;28;20060;-61
2022/03/26 04:35:35;;;;;;;23.55;17.92;;;6.90;62.60;;;;;;5079726;28;20103;-63
2022/03/26 04:38:02;;;;;;;23.65;18.52;;;7.00;62.60;;;;;;5077644;28;20033;-63
2022/03/26 04:40:28;;;;;;;20.58;16.92;;;7.00;62.40;;;;;;5085312;28;20036;-62
2022/03/26 04:42:55;;;;;;;26.00;18.70;;;7.10;62.30;;;;;;5103166;28;20479;-62
2022/03/26 04:45:22;;;;;;;23.85;17.67;;;7.20;62.30;;;;;;5099146;28;20016;-62
2022/03/26 04:47:47;;;;;;;22.45;17.65;;;7.20;62.30;;;;;;5097615;28;20024;-62
2022/03/26 04:50:13;;;;;;;20.88;17.08;;;7.30;62.30;;;;;;5113220;28;20020;-62
2022/03/26 04:52:39;;;;;;;22.98;17.42;;;7.40;62.10;;;;;;5081999;28;20043;-62
2022/03/26 04:55:08;;;;;;;21.90;17.50;;;7.60;62.00;;;;;;5105895;28;20028;-62
2022/03/26 04:57:41;;;;;;;21.00;17.17;;;7.70;61.70;;;;;;5105953;28;20032;-62
2022/03/26 05:00:08;;;;;;;21.73;17.17;;;7.80;62.10;;;;;;5094130;28;20021;-62
2022/03/26 05:02:38;;;;;;;20.45;17.05;;;8.00;61.40;;;;;;5085178;28;20032;-62
2022/03/26 05:05:08;;;;;;;21.30;17.63;;;8.10;60.80;;;;;;5112907;28;20530;-62
2022/03/26 05:07:46;;;;;;;25.42;18.08;;;8.30;60.40;;;;;;5088655;28;20056;-62
2022/03/26 05:10:32;;;;;;;21.70;16.90;;;8.40;60.00;;;;;;5101605;28;20029;-62
2022/03/26 05:12:59;;;;;;;17.92;16.02;;;8.70;59.50;;;;;;5095790;28;20556;-62
2022/03/26 05:15:27;;;;;;;19.60;15.90;;;8.90;59.50;;;;;;5100452;28;20027;-62
2022/03/26 05:17:54;;;;;;;19.80;16.38;;;9.30;58.90;;;;;;5104371;28;20114;-62
2022/03/26 05:20:20;;;;;;;18.25;16.33;;;9.60;58.20;;;;;;5098374;28;20020;-62
2022/03/26 05:22:47;;;;;;;20.35;17.50;;;10.00;57.60;;;;;;5090633;28;20025;-62
2022/03/26 05:25:15;;;;;;;21.08;16.67;;;10.40;56.90;;;;;;5103447;28;20038;-62
2022/03/26 05:27:45;;;;;;;22.35;17.02;;;10.80;55.90;;;;;;5112858;28;20039;-62
2022/03/26 05:30:12;;;;;;;18.03;15.80;;;11.20;55.10;;;;;;5088016;28;20032;-62
2022/03/26 05:32:37;;;;;;;20.23;17.55;;;11.50;54.50;;;;;;5092174;28;20288;-62
2022/03/26 05:35:06;;;;;;;19.63;16.08;;;11.80;53.90;;;;;;5107536;28;20028;-62
2022/03/26 05:37:32;;;;;;;21.98;17.05;;;12.10;53.40;;;;;;5088043;28;20044;-62
2022/03/26 05:39:58;;;;;;;21.08;15.82;;;12.50;52.80;;;;;;5084631;28;20016;-62
2022/03/26 05:42:24;;;;;;;18.48;16.48;;;12.70;51.90;;;;;;5087836;28;20031;-62
2022/03/26 05:44:49;;;;;;;19.42;16.25;;;12.90;51.50;;;;;;5097421;28;20407;-62
2022/03/26 05:47:15;;;;;;;20.98;17.08;;;12.90;51.20;;;;;;5089245;28;20031;-62
2022/03/26 05:49:41;;;;;;;18.70;15.95;;;12.90;51.00;;;;;;5081013;28;20036;-62
2022/03/26 05:52:07;;;;;;;21.83;16.83;;;12.90;51.10;;;;;;5079627;28;20090;-63
2022/03/26 05:54:33;;;;;;;20.95;16.60;;;12.90;51.10;;;;;;5092086;28;20078;-63
2022/03/26 05:56:59;;;;;;;19.52;16.50;;;13.00;51.10;;;;;;5103099;28;20418;-63
2022/03/26 05:59:26;;;;;;;20.45;16.85;;;13.10;51.00;;;;;;5090667;28;20054;-63
2022/03/26 06:01:53;;;;;;;21.40;16.27;;;13.40;50.70;;;;;;5089873;28;20102;-63
2022/03/26 06:04:19;;;;;;;21.08;15.98;;;13.60;50.30;;;;;;5095236;28;20050;-63
2022/03/26 06:06:47;;;;;;;19.75;15.25;;;13.90;50.00;;;;;;5095940;28;20035;-58
2022/03/26 06:09:13;;;;;;;19.42;14.88;;;14.10;49.50;;;;;;5077037;28;20032;-59
2022/03/26 06:11:39;;;;;;;19.85;15.43;;;14.40;48.90;;;;;;5101244;28;20076;-57
2022/03/26 06:14:06;;;;;;;20.60;14.90;;;14.60;48.20;;;;;;5091099;28;20028;-58
2022/03/26 06:16:32;;;;;;;18.80;14.82;;;14.70;47.70;;;;;;5100128;28;20442;-58
2022/03/26 06:18:58;;;;;;;20.85;15.05;;;14.70;47.60;;;;;;5083200;28;20099;-58
2022/03/26 06:21:24;;;;;;;20.77;14.60;;;14.60;47.50;;;;;;5095945;28;20543;-58
2022/03/26 06:23:50;;;;;;;17.70;14.88;;;14.30;47.60;;;;;;5087160;28;20060;-60
2022/03/26 06:26:15;;;;;;;18.77;15.73;;;14.00;47.90;;;;;;5097341;28;20039;-58
2022/03/26 06:28:41;;;;;;;19.70;15.70;;;13.60;48.30;;;;;;5106494;28;20045;-59
2022/03/26 06:31:08;;;;;;;16.35;14.18;;;13.30;48.90;;;;;;5115186;28;20027;-59
2022/03/26 06:33:34;;;;;;;18.08;14.20;;;13.00;49.30;;;;;;5112918;28;20015;-59
2022/03/26 06:36:00;;;;;;;19.40;14.82;;;12.70;49.70;;;;;;5093140;28;20487;-58
2022/03/26 06:38:31;;;;;;;19.55;14.30;;;12.60;50.10;;;;;;5079441;28;20032;-58
2022/03/26 06:40:59;;;;;;;19.15;14.35;;;12.40;50.30;;;;;;5091015;28;20039;-58
2022/03/26 06:43:25;;;;;;;18.75;14.60;;;12.30;50.70;;;;;;5113525;28;20024;-58
2022/03/26 06:45:52;;;;;;;17.23;13.65;;;12.20;51.00;;;;;;5104894;28;20479;-58
2022/03/26 06:48:18;;;;;;;18.25;14.85;;;12.10;51.10;;;;;;5089914;28;20373;-59
2022/03/26 06:50:43;;;;;;;16.67;14.65;;;12.00;51.30;;;;;;5115740;27;20095;-58
2022/03/26 06:53:09;;;;;;;16.13;14.05;;;11.90;52.00;;;;;;5092418;28;20025;-58
2022/03/26 06:55:35;;;;;;;17.67;13.65;;;11.90;51.60;;;;;;5090114;28;20490;-58
2022/03/26 06:58:00;;;;;;;19.00;13.55;;;11.90;51.70;;;;;;5094313;28;20107;-58
2022/03/26 07:00:26;;;;;;;16.42;13.25;;;11.90;51.80;;;;;;5089747;28;20020;-58
2022/03/26 07:02:52;;;;;;;16.15;13.70;;;11.90;51.80;;;;;;5115863;28;20027;-58
2022/03/26 07:05:18;;;;;;;17.13;13.50;;;11.90;51.80;;;;;;5112136;28;20111;-59
2022/03/26 07:07:44;;;;;;;14.90;13.07;;;11.90;51.70;;;;;;5091775;28;20028;-58
2022/03/26 07:10:11;;;;;;;17.75;13.15;;;12.00;51.70;;;;;;5107742;28;20028;-58
2022/03/26 07:12:37;;;;;;;21.58;15.15;;;12.00;51.50;;;;;;5094159;28;20036;-58
2022/03/26 07:15:04;;;;;;;14.80;12.30;;;12.10;51.30;;;;;;5105824;28;20027;-58
2022/03/26 07:17:30;;;;;;;15.82;12.98;;;12.20;51.30;;;;;;5091413;28;20050;-58
2022/03/26 07:19:56;;;;;;;14.70;12.95;;;12.30;51.20;;;;;;5087809;28;20095;-58
2022/03/26 07:22:21;;;;;;;14.60;13.10;;;12.30;50.90;;;;;;5092865;28;20116;-58
2022/03/26 07:24:47;;;;;;;15.98;11.95;;;12.40;51.00;;;;;;5099760;28;20110;-58
2022/03/26 07:27:13;;;;;;;14.07;11.75;;;12.40;50.80;;;;;;5104562;28;20468;-58
2022/03/26 07:29:39;;;;;;;14.20;11.38;;;12.50;50.70;;;;;;5109279;28;20114;-58
2022/03/26 07:32:11;;;;;;;14.77;11.45;;;12.60;50.40;;;;;;5092568;28;20025;-58
2022/03/26 07:34:37;;;;;;;14.77;12.15;;;12.60;50.30;;;;;;5086183;28;20020;-57
2022/03/26 07:37:03;;;;;;;17.48;11.60;;;12.70;50.40;;;;;;5090644;28;20102;-58
2022/03/26 07:39:29;;;;;;;16.27;12.48;;;12.80;50.30;;;;;;5111975;28;20027;-58
2022/03/26 07:41:55;;;;;;;13.25;10.88;;;12.90;50.10;;;;;;5090038;28;20098;-57
2022/03/26 07:44:21;;;;;;;14.27;10.43;;;12.90;50.00;;;;;;5113802;28;20027;-58
2022/03/26 07:46:46;;;;;;;12.82;10.98;;;13.00;50.00;;;;;;5089563;28;20028;-58
2022/03/26 07:49:12;;;;;;;18.85;11.48;;;13.00;49.80;;;;;;5114621;28;20027;-59
2022/03/26 07:51:38;;;;;;;15.27;11.82;;;13.00;49.80;;;;;;5092788;28;20483;-58
2022/03/26 07:54:04;;;;;;;13.63;9.85;;;13.10;49.90;;;;;;5113479;28;20019;-58
2022/03/26 07:56:31;;;;;;;15.00;11.10;;;13.10;49.70;;;;;;5092991;28;20038;-58
2022/03/26 07:58:59;;;;;;;12.13;10.38;;;13.20;49.50;;;;;;5114519;28;20016;-59
2022/03/26 08:01:25;;;;;;;14.45;10.27;;;13.30;49.50;;;;;;5084787;27;20027;-59
2022/03/26 08:03:54;;;;;;;13.57;10.15;;;13.30;49.20;;;;;;5096619;28;20038;-59
2022/03/26 08:06:23;;;;;;;14.30;10.05;;;13.40;49.30;;;;;;5114256;27;20223;-58
2022/03/26 08:08:50;;;;;;;13.10;10.02;;;13.50;49.30;;;;;;5114150;28;20038;-58
2022/03/26 08:11:16;;;;;;;12.43;9.80;;;13.50;49.20;;;;;;5091628;28;20024;-58
2022/03/26 08:13:42;;;;;;;15.32;9.75;;;13.60;49.30;;;;;;5097828;28;20028;-59
2022/03/26 08:16:08;;;;;;;11.70;9.40;;;13.60;49.00;;;;;;5109491;28;20409;-59
2022/03/26 08:18:35;;;;;;;15.00;9.95;;;13.70;49.40;;;;;;5090623;28;20123;-59
2022/03/26 08:21:01;;;;;;;12.55;9.20;;;13.70;48.80;;;;;;5089337;28;20107;-58
2022/03/26 08:23:27;;;;;;;13.38;9.65;;;13.80;48.80;;;;;;5101844;28;20115;-59
2022/03/26 08:28:37;;;;;;;14.20;9.15;;;13.80;48.60;;;;;;5114250;28;20027;-58
2022/03/26 08:31:04;;;;;;;15.20;9.18;;;13.90;49.00;;;;;;5097253;28;20456;-58
2022/03/26 08:33:30;;;;;;;12.77;9.13;;;13.90;48.90;;;;;;5098648;28;20024;-58
2022/03/26 08:35:56;;;;;;;17.15;9.55;;;13.90;48.80;;;;;;5102605;28;20138;-58
2022/03/26 08:38:22;;;;;;;10.45;8.48;;;14.00;48.90;;;;;;5100009;28;20024;-58
2022/03/26 08:40:48;;;;;;;10.68;8.85;;;14.00;48.80;;;;;;5097486;28;20081;-58
2022/03/26 08:43:15;;;;;;;13.98;9.85;;;14.00;48.90;;;;;;5108835;28;20046;-59
2022/03/26 08:45:41;;;;;;;14.32;9.68;;;14.00;49.00;;;;;;5098705;28;20055;-59
2022/03/26 08:48:08;;;;;;;13.05;9.50;;;14.00;49.10;;;;;;5081950;28;20047;-59
2022/03/26 08:50:34;;;;;;;13.02;9.15;;;14.10;49.90;;;;;;5088281;28;20434;-59
2022/03/26 08:53:00;;;;;;;12.32;9.35;;;14.10;49.10;;;;;;5097271;28;20023;-59
2022/03/26 08:55:27;;;;;;;17.83;8.90;;;14.20;49.00;;;;;;5081101;28;20025;-63
2022/03/26 08:57:53;;;;;;;10.65;9.18;;;14.20;48.90;;;;;;5087971;28;20028;-63
2022/03/26 09:00:20;;;;;;;12.18;8.82;;;14.30;48.80;;;;;;5110069;28;20026;-63
2022/03/26 09:02:45;;;;;;;16.42;9.68;;;14.30;48.70;;;;;;5102405;28;20055;-63
2022/03/26 09:05:15;;;;;;;13.75;8.98;;;14.40;48.50;;;;;;5104365;28;20064;-63
2022/03/26 09:07:41;;;;;;;13.70;8.80;;;14.40;48.20;;;;;;5080186;28;20104;-62
2022/03/26 09:10:08;;;;;;;13.85;8.25;;;14.50;47.90;;;;;;5075042;28;20024;-62
2022/03/26 09:12:34;;;;;;;14.45;8.73;;;14.50;47.60;;;;;;5097333;28;20032;-62
2022/03/26 09:15:01;;;;;;;13.27;8.35;;;14.50;47.30;;;;;;5099203;28;20023;-63
2022/03/26 09:17:27;;;;;;;14.32;8.05;;;14.60;47.10;;;;;;5080051;28;20391;-63
2022/03/26 09:19:53;;;;;;;15.35;8.18;;;14.70;47.20;;;;;;5088915;28;20028;-62
2022/03/26 09:22:19;;;;;;;11.68;7.28;;;14.80;47.00;;;;;;5089784;28;20051;-62
2022/03/26 09:24:44;;;;;;;15.10;7.30;;;14.80;46.70;;;;;;5111393;28;20036;-62
2022/03/26 09:27:11;;;;;;;11.00;7.70;;;14.90;46.60;;;;;;5100334;28;20024;-62
2022/03/26 09:29:37;;;;;;;10.23;7.20;;;15.00;46.30;;;;;;5101052;28;20020;-62
2022/03/26 09:32:04;;;;;;;10.68;7.38;;;15.10;46.10;;;;;;5089095;28;20064;-62
2022/03/26 09:34:29;;;;;;;12.93;7.40;;;15.10;45.80;;;;;;5112836;28;20575;-62
2022/03/26 09:36:55;;;;;;;9.93;7.82;;;15.20;45.80;;;;;;5102298;28;20123;-62
2022/03/26 09:39:21;;;;;;;10.77;7.55;;;15.20;45.70;;;;;;5103462;28;20373;-62
2022/03/26 09:41:48;;;;;;;10.02;7.18;;;15.30;45.70;;;;;;5112741;28;20031;-62
2022/03/26 09:44:14;;;;;;;19.45;7.80;;;15.40;45.70;;;;;;5088415;28;20554;-62
2022/03/26 09:46:40;;;;;;;12.15;7.55;;;15.40;45.60;;;;;;5084148;28;20024;-62
2022/03/26 09:49:09;;;;;;;9.88;7.70;;;15.50;45.50;;;;;;5103579;28;20085;-62
2022/03/26 09:51:35;;;;;;;12.80;6.85;;;15.60;45.30;;;;;;5109930;28;20088;-62
2022/03/26 09:54:02;;;;;;;12.02;7.50;;;15.70;45.20;;;;;;5103699;28;20023;-62
2022/03/26 09:56:30;;;;;;;12.18;7.45;;;15.80;44.90;;;;;;5082875;28;20046;-62
2022/03/26 09:58:57;;;;;;;13.95;7.97;;;15.90;44.80;;;;;;5090440;28;20056;-62
2022/03/26 10:01:23;;;;;;;12.20;6.75;;;15.90;44.40;;;;;;5100046;28;20051;-62
2022/03/26 10:04:09;;;;;;;11.73;7.15;;;16.00;44.30;;;;;;5112528;28;20463;-62
2022/03/26 10:06:35;;;;;;;11.00;7.50;;;16.00;44.10;;;;;;5114002;28;20032;-62
2022/03/26 10:09:01;;;;;;;12.60;7.32;;;16.00;44.40;;;;;;5085801;28;20084;-62
2022/03/26 10:11:32;;;;;;;16.90;7.63;;;16.00;44.40;;;;;;5115018;28;20429;-62
2022/03/26 10:13:59;;;;;;;13.23;7.55;;;16.00;44.50;;;;;;5115676;28;20036;-62
2022/03/26 10:16:26;;;;;;;16.17;7.75;;;16.00;44.50;;;;;;5084757;28;20021;-63
2022/03/26 10:18:52;;;;;;;10.63;7.10;;;15.90;44.50;;;;;;5092489;28;20434;-63
2022/03/26 10:21:20;;;;;;;8.52;6.68;;;15.90;44.40;;;;;;5094847;28;20021;-62
2022/03/26 10:23:51;;;;;;;8.43;6.50;;;15.90;44.20;;;;;;5101300;28;20031;-62
2022/03/26 10:26:19;;;;;;;9.63;7.10;;;15.90;44.30;;;;;;5098114;28;20381;-63
2022/03/26 10:28:59;;;;;;;10.55;6.70;;;15.80;44.50;;;;;;5109504;28;20110;-62
2022/03/26 10:34:21;;;;;;;14.45;8.60;;;15.80;44.40;;;;;;5116282;28;20161;-62
2022/03/26 10:36:49;;;;;;;12.02;7.05;;;15.80;44.60;;;;;;5104541;28;20044;-62
2022/03/26 10:39:23;;;;;;;13.60;7.38;;;15.80;44.70;;;;;;5099945;28;20020;-62
2022/03/26 10:41:50;;;;;;;9.77;6.68;;;15.80;44.60;;;;;;5115993;28;20027;-63
2022/03/26 10:44:24;;;;;;;16.63;6.95;;;15.80;44.50;;;;;;5107147;28;20032;-62
2022/03/26 10:46:54;;;;;;;14.73;7.43;;;15.90;44.30;;;;;;5107385;28;20031;-62
2022/03/26 10:49:37;;;;;;;15.97;7.07;;;15.90;44.10;;;;;;5115829;28;20031;-62
2022/03/26 10:52:15;;;;;;;16.08;6.80;;;16.10;44.10;;;;;;5097978;28;20890;-63
2022/03/26 10:54:41;;;;;;;19.45;7.00;;;16.10;43.70;;;;;;5114721;28;20027;-62
2022/03/26 10:57:08;;;;;;;12.82;6.95;;;16.20;43.20;;;;;;5115573;28;20020;-62
2022/03/26 10:59:34;;;;;;;10.63;6.40;;;16.30;43.30;;;;;;5088716;28;20029;-62
2022/03/26 11:02:01;;;;;;;11.43;6.65;;;16.30;42.70;;;;;;5115547;28;20024;-63
2022/03/26 11:04:30;;;;;;;22.55;7.72;;;16.40;42.80;;;;;;5107257;28;20038;-63
2022/03/26 11:06:57;;;;;;;12.82;6.95;;;16.50;42.60;;;;;;5115325;28;20510;-63
2022/03/26 11:09:25;;;;;;;14.57;7.53;;;16.50;42.70;;;;;;5092309;28;20025;-63
2022/03/26 11:11:53;;;;;;;13.45;7.72;;;16.60;42.40;;;;;;5113886;28;20515;-62
2022/03/26 11:14:36;;;;;;;12.00;7.03;;;16.70;42.30;;;;;;5098108;28;20028;-62
2022/03/26 11:17:17;;;;;;;19.80;7.30;;;16.70;42.10;;;;;;5095690;28;20020;-63
2022/03/26 11:20:02;;;;;;;22.75;8.38;;;16.70;41.90;;;;;;5089940;28;20030;-63
2022/03/26 11:22:29;;;;;;;14.65;8.10;;;16.80;41.50;;;;;;5114984;28;20038;-63
2022/03/26 11:25:13;;;;;;;13.32;9.05;;;16.80;41.80;;;;;;5114725;28;20042;-62
2022/03/26 11:27:47;;;;;;;19.83;9.15;;;16.90;41.60;;;;;;5077650;28;20028;-63
2022/03/26 11:30:35;;;;;;;15.90;8.25;;;16.90;41.80;;;;;;5114049;28;20050;-63
2022/03/26 11:33:12;;;;;;;10.57;7.72;;;16.90;41.80;;;;;;5102592;28;20040;-63
2022/03/26 11:35:58;;;;;;;23.02;8.93;;;16.90;41.40;;;;;;5114859;28;20023;-63
2022/03/26 11:38:28;;;;;;;12.38;7.72;;;17.00;41.20;;;;;;5111384;28;20039;-63
2022/03/26 11:41:08;;;;;;;14.95;7.60;;;17.00;41.40;;;;;;5090537;28;20031;-63
2022/03/26 11:43:43;;;;;;;20.03;8.53;;;17.00;41.20;;;;;;5099051;28;20035;-63
2022/03/26 11:51:58;;;;;;;12.70;8.27;;;17.00;40.90;;;;;;5101850;28;20035;-63
2022/03/26 11:54:25;;;;;;;16.00;8.95;;;17.00;40.90;;;;;;5114457;28;20118;-63
2022/03/26 11:57:09;;;;;;;18.55;9.05;;;17.00;41.00;;;;;;5114590;28;20109;-63
2022/03/26 11:59:41;;;;;;;14.82;9.07;;;17.00;41.00;;;;;;5109312;28;20369;-63
2022/03/26 12:02:34;;;;;;;17.52;8.13;;;17.00;41.00;;;;;;5114333;28;20114;-63
2022/03/26 12:08:35;;;;;;;74.10;13.68;;;17.00;40.30;;;;;;5109815;28;20439;-63
2022/03/26 12:11:01;;;;;;;19.98;8.40;;;17.00;39.80;;;;;;5098381;28;20043;-63
2022/03/26 12:13:32;;;;;;;14.30;8.70;;;16.90;40.00;;;;;;5109586;28;20073;-63
2022/03/26 12:16:06;;;;;;;17.50;9.35;;;16.90;39.80;;;;;;5105110;28;20016;-63
2022/03/26 12:18:37;;;;;;;12.57;8.40;;;16.90;39.50;;;;;;5076871;28;20029;-63
2022/03/26 12:21:21;;;;;;;18.38;8.80;;;16.90;39.60;;;;;;5090324;28;20052;-63
2022/03/26 12:23:48;;;;;;;22.90;8.65;;;16.90;39.50;;;;;;5079474;28;20037;-63
2022/03/26 12:26:14;;;;;;;21.45;8.88;;;16.90;39.30;;;;;;5087364;28;20032;-63
2022/03/26 12:28:43;;;;;;;11.10;6.95;;;17.00;39.00;;;;;;5082579;28;20024;-63
2022/03/26 12:31:12;;;;;;;38.35;10.40;;;17.00;38.60;;;;;;5079542;28;20032;-63
2022/03/26 12:33:40;;;;;;;15.13;8.00;;;17.00;38.40;;;;;;5089784;28;20056;-64
2022/03/26 12:36:07;;;;;;;14.93;8.18;;;17.10;38.30;;;;;;5104246;28;20519;-63
2022/03/26 12:38:33;;;;;;;13.35;8.32;;;17.10;38.30;;;;;;5094311;28;20364;-63
2022/03/26 12:41:01;;;;;;;21.17;8.70;;;17.20;38.10;;;;;;5109466;28;20080;-63
2022/03/26 12:43:28;;;;;;;15.90;8.20;;;17.30;37.80;;;;;;5113925;28;20023;-63
2022/03/26 12:45:56;;;;;;;17.33;9.63;;;17.30;37.60;;;;;;5094578;28;20031;-63
2022/03/26 12:48:26;;;;;;;20.45;9.20;;;17.20;37.40;;;;;;5086113;28;20546;-63
2022/03/26 12:50:52;;;;;;;23.67;9.23;;;17.20;37.40;;;;;;5102930;28;20077;-63
2022/03/26 12:53:19;;;;;;;15.18;8.20;;;17.30;37.50;;;;;;5090895;28;20070;-63